East Genoa, New York
Current Conditions -  °F | °C
As of 4:35 PM on Saturday 25 Oct 2014 (Local Time) from KN03 Reporting Station
Overcast Overcast  
Wind Chill: 63°   Ceiling: 6000
Heat Index: 63°   Visibility: 10mi
Dew Point: 46°   Wind: 6mph
Humidity: 55%   Direction: 220°SW
Pressure: 29.6"   Gusts: NA
Location:  42.6513°N, 76.421°W
Report Text: KN03 252035Z AUTO 22005KT 10SM OVC060 17/08 A2960 RMK AO2
Loading
Personal Weather Stations






























Interactive Weather Map
Tropical Storm Tracking
New forecast layout! Learn more

10-Day Weather Forecast

Advertisements
Track Severe Weather on mobile